Time;durP1;ratioP1;P1;durP2;ratioP2;P2;SDS_P1;SDS_P2;PMS_P1;PMS_P2;Temp;Humidity;BMP_temperature;BMP_pressure;BME280_temperature;BME280_humidity;BME280_pressure;Samples;Min_cycle;Max_cycle;Signal;HPM_P1;HPM_P2
2021/01/17 00:00:53;;;;;;;16.65;8.13;;;;;;;-11.39;56.17;100929.34;1788577;77;20961;-79
2021/01/17 00:03:21;;;;;;;18.55;8.15;;;;;;;-11.52;56.59;100925.95;1789964;78;20963;-81
2021/01/17 00:05:49;;;;;;;19.50;8.10;;;;;;;-11.57;56.90;100931.27;1786269;79;20961;-79
2021/01/17 00:08:19;;;;;;;13.62;6.80;;;;;;;-11.58;56.95;100924.47;1818631;77;21416;-82
2021/01/17 00:10:47;;;;;;;11.63;7.12;;;;;;;-11.55;57.13;100920.80;1818030;79;20959;-81
2021/01/17 00:13:16;;;;;;;15.45;7.85;;;;;;;-11.50;57.15;100926.86;1789583;78;20951;-82
2021/01/17 00:15:44;;;;;;;12.95;7.80;;;;;;;-11.49;56.82;100928.19;1786065;78;21032;-81
2021/01/17 00:18:12;;;;;;;15.05;8.05;;;;;;;-11.52;56.86;100923.00;1786256;79;21010;-81
2021/01/17 00:20:42;;;;;;;14.93;8.18;;;;;;;-11.50;57.09;100921.39;1789319;78;21554;-83
2021/01/17 00:23:10;;;;;;;19.23;8.40;;;;;;;-11.44;56.83;100914.84;1786282;79;21060;-80
2021/01/17 00:25:38;;;;;;;12.63;7.22;;;;;;;-11.46;56.49;100909.72;1790098;78;20947;-79
2021/01/17 00:28:06;;;;;;;14.30;8.40;;;;;;;-11.50;56.58;100917.59;1786715;79;21040;-79
2021/01/17 00:30:38;;;;;;;10.95;6.47;;;;;;;-11.56;56.37;100922.47;1818901;77;21014;-78
2021/01/17 00:33:06;;;;;;;13.55;7.65;;;;;;;-11.62;55.85;100913.40;1819041;77;21038;-79
2021/01/17 00:35:34;;;;;;;12.58;7.03;;;;;;;-11.76;55.36;100914.57;1816278;77;21014;-78
2021/01/17 00:38:02;;;;;;;17.87;8.45;;;;;;;-11.92;55.27;100915.33;1784811;79;20897;-79
2021/01/17 00:40:30;;;;;;;20.92;8.60;;;;;;;-12.03;55.38;100919.14;1787762;79;21503;-78
2021/01/17 00:42:58;;;;;;;15.20;8.03;;;;;;;-12.16;55.43;100910.66;1783029;77;20953;-79
2021/01/17 00:45:27;;;;;;;14.87;7.65;;;;;;;-12.26;55.80;100912.41;1786549;79;22136;-80
2021/01/17 00:47:56;;;;;;;19.73;8.58;;;;;;;-12.36;56.07;100908.27;1782824;79;20950;-79
2021/01/17 00:50:27;;;;;;;16.02;6.75;;;;;;;-12.43;56.12;100904.18;1786444;79;20923;-80
2021/01/17 00:52:56;;;;;;;13.25;7.78;;;;;;;-12.54;56.23;100893.67;1782950;79;20957;-81
2021/01/17 00:55:32;;;;;;;14.70;7.85;;;;;;;-12.61;56.47;100899.30;1814670;77;21069;-79
2021/01/17 00:58:01;;;;;;;15.63;8.90;;;;;;;-12.69;56.48;100901.92;1815019;77;20981;-80
2021/01/17 01:00:31;;;;;;;17.70;8.00;;;;;;;-12.74;56.61;100891.65;1782901;79;21044;-80
2021/01/17 01:03:12;;;;;;;19.62;10.43;;;;;;;-12.76;56.67;100894.52;1785661;79;21053;-81
2021/01/17 01:05:40;;;;;;;11.93;6.90;;;;;;;-12.81;56.45;100892.22;1815166;77;21069;-81
2021/01/17 01:08:08;;;;;;;14.13;6.65;;;;;;;-12.86;56.30;100892.45;1815032;77;20931;-80
2021/01/17 01:10:37;;;;;;;12.68;7.42;;;;;;;-12.94;56.22;100897.19;1783044;79;21062;-80
2021/01/17 01:13:05;;;;;;;11.53;6.87;;;;;;;-13.01;56.27;100902.39;1786284;79;21357;-79
2021/01/17 01:15:33;;;;;;;14.43;7.37;;;;;;;-13.07;56.30;100902.17;1783113;79;21017;-79
2021/01/17 01:18:01;;;;;;;19.07;9.13;;;;;;;-13.14;56.49;100903.96;1786794;79;21058;-80
2021/01/17 01:20:29;;;;;;;17.27;8.53;;;;;;;-13.21;56.62;100904.12;1783598;79;21379;-80
2021/01/17 01:22:57;;;;;;;14.63;7.25;;;;;;;-13.29;56.87;100903.00;1815810;77;21991;-83
2021/01/17 01:25:25;;;;;;;19.45;9.28;;;;;;;-13.33;56.96;100906.59;1784160;79;20949;-82
2021/01/17 01:27:54;;;;;;;15.00;8.80;;;;;;;-13.38;57.11;100903.89;1788456;79;21010;-80
2021/01/17 01:30:23;;;;;;;19.20;8.88;;;;;;;-13.45;57.12;100895.20;1785899;79;20953;-77
2021/01/17 01:32:51;;;;;;;17.07;8.98;;;;;;;-13.53;57.36;100905.37;1815539;77;21010;-82
2021/01/17 01:35:19;;;;;;;20.95;9.03;;;;;;;-13.60;57.43;100900.47;1760787;80;21159;-83
2021/01/17 01:37:47;;;;;;;22.07;8.90;;;;;;;-13.65;57.52;100902.31;1786224;79;20943;-81
2021/01/17 01:40:16;;;;;;;19.50;8.20;;;;;;;-13.68;57.50;100895.89;1810843;77;20934;-81
2021/01/17 01:42:45;;;;;;;14.28;8.23;;;;;;;-13.69;57.61;100902.61;1810618;77;20967;-82
2021/01/17 01:45:13;;;;;;;19.17;8.65;;;;;;;-13.71;57.68;100897.89;1740673;81;21018;-80
2021/01/17 01:47:41;;;;;;;16.50;7.95;;;;;;;-13.72;57.68;100883.55;1771892;80;21629;-78
2021/01/17 01:50:10;;;;;;;18.62;8.20;;;;;;;-13.71;57.87;100884.44;1787735;77;21381;-76
2021/01/17 01:52:39;;;;;;;19.80;8.45;;;;;;;-13.75;57.73;100875.02;1764413;81;21022;-76
2021/01/17 01:55:10;;;;;;;17.15;9.05;;;;;;;-13.82;57.97;100873.48;1813133;77;20943;-78
2021/01/17 01:57:38;;;;;;;14.78;7.47;;;;;;;-13.88;57.80;100871.96;1739769;81;20923;-81
2021/01/17 02:00:07;;;;;;;15.80;8.28;;;;;;;-13.95;57.82;100876.28;1770370;80;21244;-80
2021/01/17 02:02:46;;;;;;;17.55;8.08;;;;;;;-14.01;58.16;100865.94;1804868;77;20963;-81
2021/01/17 02:05:15;;;;;;;13.10;8.40;;;;;;;-14.04;58.37;100857.00;1810288;77;20999;-80
2021/01/17 02:08:03;;;;;;;18.95;9.28;;;;;;;-14.05;58.74;100860.30;1810315;77;20991;-82
2021/01/17 02:10:31;;;;;;;22.58;9.58;;;;;;;-14.03;58.75;100862.08;1761563;77;21121;-80
2021/01/17 02:13:05;;;;;;;14.23;8.90;;;;;;;-14.03;58.78;100863.75;1740810;81;21181;-80
2021/01/17 02:15:34;;;;;;;18.02;8.63;;;;;;;-14.03;58.74;100859.56;1812545;77;21006;-82
2021/01/17 02:18:04;;;;;;;19.87;9.88;;;;;;;-14.06;58.74;100855.66;1740638;81;21416;-83
2021/01/17 02:20:36;;;;;;;18.15;9.15;;;;;;;-14.10;58.89;100856.73;1770920;80;21452;-82
2021/01/17 02:23:16;;;;;;;22.05;9.80;;;;;;;-14.10;58.97;100853.80;1843891;77;21014;-81
2021/01/17 02:25:45;;;;;;;19.57;8.75;;;;;;;-14.14;59.08;100855.72;1739912;81;21483;-83
2021/01/17 02:28:17;;;;;;;16.82;9.15;;;;;;;-14.14;59.21;100851.94;1760167;77;20978;-83
2021/01/17 02:30:51;;;;;;;18.60;8.03;;;;;;;-14.11;59.29;100857.13;1784584;77;20966;-83
2021/01/17 02:33:25;;;;;;;17.73;9.98;;;;;;;-14.09;59.25;100855.91;1842568;77;20942;-83
2021/01/17 02:36:00;;;;;;;19.62;9.38;;;;;;;-14.17;59.22;100853.08;1843222;76;20965;-84
2021/01/17 02:38:53;;;;;;;19.15;9.35;;;;;;;-14.20;59.38;100851.70;1786161;79;20981;-83
2021/01/17 02:42:03;;;;;;;21.93;9.28;;;;;;;-14.25;59.52;100860.69;1778395;78;21057;-82
2021/01/17 02:44:34;;;;;;;18.80;9.40;;;;;;;-14.30;59.77;100861.75;1786008;79;21067;-82
2021/01/17 02:47:02;;;;;;;14.33;8.25;;;;;;;-14.34;59.99;100857.77;1818275;77;21002;-82
2021/01/17 02:49:31;;;;;;;17.20;8.95;;;;;;;-14.42;60.16;100857.05;1786012;79;21051;-82
2021/01/17 02:52:03;;;;;;;17.35;10.38;;;;;;;-14.45;60.43;100859.81;1821734;78;22180;-80
2021/01/17 02:54:34;;;;;;;22.52;10.10;;;;;;;-14.51;60.62;100859.16;1759396;78;21065;-83
2021/01/17 02:57:08;;;;;;;22.22;10.28;;;;;;;-14.51;60.82;100869.62;1764392;78;21010;-83
2021/01/17 02:59:53;;;;;;;20.10;10.28;;;;;;;-14.50;60.80;100870.08;1818522;77;21492;-82
2021/01/17 03:02:25;;;;;;;15.15;8.93;;;;;;;-14.51;61.00;100862.94;1818119;77;20943;-81
2021/01/17 03:05:04;;;;;;;15.45;9.78;;;;;;;-14.57;61.17;100859.31;1818006;77;21216;-82
2021/01/17 03:07:35;;;;;;;20.75;9.00;;;;;;;-14.67;61.30;100865.19;1818056;77;22109;-81
2021/01/17 03:10:06;;;;;;;17.00;10.35;;;;;;;-14.73;61.45;100871.20;1792432;77;21010;-82
2021/01/17 03:12:34;;;;;;;19.60;10.82;;;;;;;-14.76;61.66;100866.41;1817875;77;21018;-79
2021/01/17 03:15:03;;;;;;;20.72;9.65;;;;;;;-14.77;61.73;100873.50;1816550;77;20947;-81
2021/01/17 03:17:31;;;;;;;23.70;10.93;;;;;;;-14.78;61.85;100878.05;1785456;79;21114;-79
2021/01/17 03:20:00;;;;;;;20.50;11.25;;;;;;;-14.75;61.88;100884.10;1789875;78;20997;-81
2021/01/17 03:22:27;;;;;;;16.40;8.93;;;;;;;-14.80;62.03;100883.04;1789637;78;20951;-80
2021/01/17 03:24:55;;;;;;;23.80;11.30;;;;;;;-14.87;62.19;100883.15;1786010;79;20953;-81
2021/01/17 03:27:23;;;;;;;21.77;10.78;;;;;;;-14.93;62.38;100895.84;1818303;77;21101;-81
2021/01/17 03:29:51;;;;;;;18.95;11.43;;;;;;;-14.96;62.49;100899.45;1818423;77;21336;-80
2021/01/17 03:32:20;;;;;;;22.32;11.25;;;;;;;-14.97;62.59;100905.28;1818226;77;20959;-80
2021/01/17 03:34:48;;;;;;;24.60;11.83;;;;;;;-14.97;62.65;100904.88;1817364;77;21018;-80
2021/01/17 03:37:20;;;;;;;27.50;12.35;;;;;;;-14.97;62.61;100907.80;1815564;77;20903;-79
2021/01/17 03:39:48;;;;;;;23.75;11.00;;;;;;;-14.99;62.77;100901.83;1815586;77;20952;-80
2021/01/17 03:42:17;;;;;;;20.32;11.80;;;;;;;-15.02;62.88;100905.47;1816152;77;21865;-79
2021/01/17 03:44:48;;;;;;;23.22;12.10;;;;;;;-15.06;62.94;100906.97;1815787;77;21566;-80
2021/01/17 03:47:15;;;;;;;24.23;11.20;;;;;;;-15.05;62.94;100904.53;1815546;77;21528;-80
2021/01/17 03:49:43;;;;;;;19.77;10.28;;;;;;;-15.09;62.91;100901.40;1815647;77;21014;-81
2021/01/17 03:52:11;;;;;;;22.25;10.82;;;;;;;-15.13;62.99;100896.15;1815523;77;21003;-81
2021/01/17 03:54:39;;;;;;;26.37;11.57;;;;;;;-15.16;63.10;100890.59;1815447;77;21396;-80
2021/01/17 03:57:07;;;;;;;30.17;12.28;;;;;;;-15.17;63.06;100892.61;1815494;77;20971;-81
2021/01/17 03:59:35;;;;;;;19.42;10.38;;;;;;;-15.18;63.01;100892.16;1846364;77;20955;-81
2021/01/17 04:02:03;;;;;;;18.75;9.05;;;;;;;-15.19;62.96;100887.05;1815526;77;21571;-80
2021/01/17 04:04:31;;;;;;;18.23;9.03;;;;;;;-15.22;62.87;100886.52;1815419;77;21046;-81
2021/01/17 04:06:58;;;;;;;27.05;9.65;;;;;;;-15.21;62.79;100883.19;1740351;81;21404;-81
2021/01/17 04:09:26;;;;;;;16.10;9.05;;;;;;;-15.19;62.87;100882.88;1810606;77;21484;-80
2021/01/17 04:11:55;;;;;;;22.87;9.65;;;;;;;-15.16;62.71;100870.47;1811131;77;21421;-81
2021/01/17 04:14:23;;;;;;;16.17;8.38;;;;;;;-15.19;62.60;100864.42;1742499;81;21034;-82
2021/01/17 04:16:52;;;;;;;24.27;10.23;;;;;;;-15.29;62.54;100858.10;1812042;77;21053;-80
2021/01/17 04:19:20;;;;;;;22.58;8.98;;;;;;;-15.36;62.63;100866.11;1811252;77;21496;-81
2021/01/17 04:21:48;;;;;;;19.85;9.30;;;;;;;-15.36;62.67;100868.63;1741152;81;20930;-80
2021/01/17 04:24:16;;;;;;;14.78;8.40;;;;;;;-15.37;62.63;100856.86;1811939;77;21039;-81
2021/01/17 04:26:44;;;;;;;16.07;8.88;;;;;;;-15.40;62.47;100878.06;1740236;81;21010;-80
2021/01/17 04:29:13;;;;;;;17.17;10.03;;;;;;;-15.48;62.55;100884.84;1811219;77;20959;-79
2021/01/17 04:31:45;;;;;;;22.67;10.60;;;;;;;-15.51;62.53;100888.47;1810662;77;21631;-78
2021/01/17 04:34:14;;;;;;;17.67;9.58;;;;;;;-15.54;62.63;100900.87;1811458;77;21030;-76
2021/01/17 04:36:47;;;;;;;22.60;9.48;;;;;;;-15.56;62.59;100911.27;1874598;76;21006;-77
2021/01/17 04:39:15;;;;;;;19.30;9.95;;;;;;;-15.61;62.52;100915.19;1773334;80;21483;-76
2021/01/17 04:41:45;;;;;;;22.60;11.43;;;;;;;-15.64;62.82;100907.50;1850360;76;20983;-78
2021/01/17 04:44:13;;;;;;;24.32;10.53;;;;;;;-15.59;62.98;100916.13;1772754;78;21168;-79
2021/01/17 04:46:41;;;;;;;26.40;10.93;;;;;;;-15.54;62.88;100918.46;1819406;76;21025;-81
2021/01/17 04:49:09;;;;;;;22.70;12.05;;;;;;;-15.51;62.77;100904.81;1771289;80;20943;-81
2021/01/17 04:51:37;;;;;;;16.77;10.95;;;;;;;-15.49;62.79;100893.59;1847613;76;21057;-81
2021/01/17 04:54:05;;;;;;;18.10;9.05;;;;;;;-15.52;62.69;100895.93;1744920;80;21010;-81
2021/01/17 04:56:38;;;;;;;21.52;10.50;;;;;;;-15.55;62.77;100896.64;1847407;76;21156;-81
2021/01/17 04:59:13;;;;;;;21.82;11.35;;;;;;;-15.58;62.88;100901.90;1746121;80;21548;-81
2021/01/17 05:01:49;;;;;;;22.37;9.78;;;;;;;-15.67;63.11;100894.39;1847633;76;21018;-80
2021/01/17 05:04:38;;;;;;;19.00;10.75;;;;;;;-15.72;63.24;100893.72;1771310;79;21169;-80
2021/01/17 05:07:16;;;;;;;17.73;8.83;;;;;;;-15.76;63.35;100895.59;1847670;76;20962;-80
2021/01/17 05:09:50;;;;;;;20.55;10.18;;;;;;;-15.79;63.35;100903.85;1802404;76;22108;-81
2021/01/17 05:12:18;;;;;;;21.30;9.43;;;;;;;-15.82;63.40;100909.98;1809320;76;27378;-81
2021/01/17 05:14:57;;;;;;;19.67;10.10;;;;;;;-15.82;63.49;100906.62;1794573;76;21066;-80
2021/01/17 05:17:25;;;;;;;16.87;8.83;;;;;;;-15.82;63.55;100909.13;1771082;80;21025;-80
2021/01/17 05:19:53;;;;;;;25.25;10.38;;;;;;;-15.85;63.49;100915.23;1847571;76;20962;-80
2021/01/17 05:22:21;;;;;;;23.70;9.98;;;;;;;-15.88;63.52;100919.31;1771387;80;21303;-80
2021/01/17 05:24:53;;;;;;;20.30;10.25;;;;;;;-15.85;63.46;100922.77;1848814;76;21014;-80
2021/01/17 05:27:22;;;;;;;28.35;10.82;;;;;;;-15.87;63.54;100915.19;1849204;76;21054;-80
2021/01/17 05:29:52;;;;;;;26.30;10.80;;;;;;;-15.87;63.51;100908.91;1771552;80;20994;-79
2021/01/17 05:32:20;;;;;;;16.95;9.10;;;;;;;-15.91;63.46;100915.80;1847539;76;20950;-81
2021/01/17 05:34:48;;;;;;;21.20;10.43;;;;;;;-15.92;63.52;100922.85;1745926;80;22652;-80
2021/01/17 05:37:16;;;;;;;23.52;10.40;;;;;;;-15.92;63.47;100927.48;1812354;76;21021;-81
2021/01/17 05:39:59;;;;;;;23.22;10.68;;;;;;;-15.91;63.53;100927.97;1847342;76;20982;-80
2021/01/17 05:42:34;;;;;;;19.85;11.10;;;;;;;-15.91;63.52;100917.06;1847481;76;20938;-80
2021/01/17 05:45:21;;;;;;;22.58;10.75;;;;;;;-15.95;63.63;100913.92;1790130;78;21025;-82
2021/01/17 05:47:56;;;;;;;20.52;10.75;;;;;;;-15.94;63.66;100916.52;1847422;76;21145;-81
2021/01/17 05:50:26;;;;;;;33.95;10.68;;;;;;;-15.89;63.60;100915.49;1771130;80;20962;-81
2021/01/17 05:53:02;;;;;;;25.57;11.20;;;;;;;-15.90;63.52;100921.28;1847473;76;21014;-82
2021/01/17 05:55:35;;;;;;;23.83;10.93;;;;;;;-15.95;63.52;100918.54;1771082;80;20931;-81
2021/01/17 05:58:30;;;;;;;19.43;10.13;;;;;;;-15.97;63.67;100920.11;1847997;76;20982;-81
2021/01/17 06:01:01;;;;;;;23.52;11.88;;;;;;;-15.98;63.72;100905.84;1848909;76;21565;-81
2021/01/17 06:03:32;;;;;;;21.23;11.78;;;;;;;-16.03;63.78;100910.99;1848847;76;20943;-82
2021/01/17 06:06:02;;;;;;;18.85;9.28;;;;;;;-16.08;63.72;100911.16;1773238;80;20947;-81
2021/01/17 06:08:30;;;;;;;22.67;11.75;;;;;;;-16.16;63.83;100913.66;1851441;76;20938;-81
2021/01/17 06:11:10;;;;;;;26.02;10.70;;;;;;;-16.20;63.99;100918.93;1774869;79;20954;-81
2021/01/17 06:13:40;;;;;;;21.02;9.58;;;;;;;-16.18;64.10;100921.50;1849060;76;21145;-80
2021/01/17 06:16:32;;;;;;;26.27;11.15;;;;;;;-16.22;64.07;100907.08;1771027;80;20963;-79
2021/01/17 06:19:04;;;;;;;22.30;9.75;;;;;;;-16.19;64.25;100900.55;1835217;76;20986;-80
2021/01/17 06:21:33;;;;;;;19.62;10.28;;;;;;;-16.13;64.29;100902.14;1771094;80;21049;-80
2021/01/17 06:24:03;;;;;;;18.85;9.53;;;;;;;-16.05;63.95;100899.15;1847306;76;21037;-80
2021/01/17 06:26:34;;;;;;;27.42;10.72;;;;;;;-16.06;63.87;100893.67;1771052;80;21038;-79
2021/01/17 06:29:07;;;;;;;22.90;11.05;;;;;;;-16.02;63.90;100894.30;1847405;76;20939;-82
2021/01/17 06:31:35;;;;;;;18.65;10.23;;;;;;;-15.97;63.70;100897.50;1771053;80;21085;-79
2021/01/17 06:34:16;;;;;;;26.10;9.35;;;;;;;-15.98;63.65;100890.77;1847580;76;20979;-81
2021/01/17 06:36:46;;;;;;;23.50;11.30;;;;;;;-16.01;63.49;100893.11;1771388;80;20957;-80
2021/01/17 06:39:27;;;;;;;25.37;11.00;;;;;;;-16.04;63.68;100895.88;1817299;77;21149;-79
2021/01/17 06:41:59;;;;;;;23.30;10.38;;;;;;;-15.97;63.77;100893.73;1817033;77;20997;-79
2021/01/17 06:44:30;;;;;;;19.20;10.50;;;;;;;-15.88;63.50;100890.83;1816925;77;20937;-80
2021/01/17 06:46:58;;;;;;;24.10;12.18;;;;;;;-15.85;63.54;100884.69;1816740;77;20937;-77
2021/01/17 06:49:29;;;;;;;20.20;10.15;;;;;;;-15.73;63.54;100890.75;1801003;78;21464;-80
2021/01/17 06:51:57;;;;;;;21.48;10.05;;;;;;;-15.62;63.29;100885.83;1777865;79;20979;-80
2021/01/17 06:54:45;;;;;;;23.70;10.90;;;;;;;-15.56;63.15;100889.91;1777822;79;20942;-81
2021/01/17 06:57:16;;;;;;;29.35;11.80;;;;;;;-15.52;63.06;100886.73;1778142;79;21696;-82
2021/01/17 06:59:48;;;;;;;24.95;10.45;;;;;;;-15.45;63.03;100889.16;1778917;78;20970;-81
2021/01/17 07:02:28;;;;;;;22.62;10.40;;;;;;;-15.36;62.73;100889.62;1780212;79;21374;-81
2021/01/17 07:05:28;;;;;;;26.23;11.65;;;;;;;-15.28;62.69;100885.81;1781041;79;21172;-82
2021/01/17 07:08:35;;;;;;;23.57;12.55;;;;;;;-15.18;62.49;100883.36;1773736;79;20908;-80
2021/01/17 07:11:15;;;;;;;25.30;11.05;;;;;;;-15.03;62.31;100881.94;1778381;79;20999;-82
2021/01/17 07:13:50;;;;;;;20.52;10.58;;;;;;;-14.86;61.93;100879.83;1777468;79;20931;-80
2021/01/17 07:16:31;;;;;;;28.62;12.80;;;;;;;-14.80;61.38;100885.92;1778320;79;20947;-81
2021/01/17 07:19:07;;;;;;;27.55;13.13;;;;;;;-14.87;61.24;100875.97;1778077;79;21151;-85
2021/01/17 07:21:40;;;;;;;22.55;12.25;;;;;;;-14.88;61.41;100876.38;1777747;79;20966;-81
2021/01/17 07:24:14;;;;;;;24.37;13.18;;;;;;;-14.81;61.34;100881.30;1777484;77;21022;-82
2021/01/17 07:27:02;;;;;;;25.20;10.53;;;;;;;-14.74;61.36;100890.84;1778515;79;21041;-80
2021/01/17 07:29:30;;;;;;;23.05;10.90;;;;;;;-14.65;60.99;100890.04;1778107;79;20900;-82
2021/01/17 07:31:58;;;;;;;19.45;10.80;;;;;;;-14.72;60.62;100890.52;1728495;79;21251;-80
2021/01/17 07:34:26;;;;;;;21.85;9.88;;;;;;;-14.86;60.62;100893.67;1728284;77;20950;-81
2021/01/17 07:36:54;;;;;;;28.20;12.33;;;;;;;-14.96;60.86;100899.45;1739929;78;20953;-81
2021/01/17 07:39:24;;;;;;;29.35;13.78;;;;;;;-14.99;61.00;100896.80;1747451;78;21061;-82
2021/01/17 07:41:54;;;;;;;32.28;14.60;;;;;;;-14.89;61.13;100893.53;1772560;78;21129;-82
2021/01/17 07:44:22;;;;;;;30.12;12.45;;;;;;;-14.77;60.94;100894.49;1766696;78;21001;-81
2021/01/17 07:46:52;;;;;;;28.17;11.75;;;;;;;-14.60;60.52;100901.57;1797836;78;21065;-82
2021/01/17 07:49:21;;;;;;;38.67;15.10;;;;;;;-14.53;60.21;100903.53;1772425;78;20946;-83
2021/01/17 07:51:52;;;;;;;28.75;14.15;;;;;;;-14.56;60.17;100901.30;1797985;78;21045;-84
2021/01/17 07:54:28;;;;;;;29.00;13.60;;;;;;;-14.52;60.15;100904.39;1797477;78;20998;-81
2021/01/17 07:56:55;;;;;;;33.30;12.28;;;;;;;-14.46;60.00;100895.46;1798113;78;21572;-82
2021/01/17 07:59:25;;;;;;;25.95;13.62;;;;;;;-14.41;59.79;100888.11;1797710;78;21009;-82
2021/01/17 08:01:54;;;;;;;31.00;14.25;;;;;;;-14.44;59.84;100888.84;1797999;77;20978;-84
2021/01/17 08:04:27;;;;;;;26.57;12.15;;;;;;;-14.43;59.88;100893.47;1798217;78;20972;-82
2021/01/17 08:06:58;;;;;;;24.72;11.33;;;;;;;-14.41;59.75;100901.96;1798116;78;20934;-81
2021/01/17 08:09:47;;;;;;;24.82;11.53;;;;;;;-14.44;59.54;100906.47;1830440;78;21421;-82
2021/01/17 08:12:36;;;;;;;21.52;11.83;;;;;;;-14.45;59.58;100900.09;1830249;77;21025;-81
2021/01/17 08:15:22;;;;;;;25.82;13.10;;;;;;;-14.36;59.75;100896.73;1797909;78;20990;-82
2021/01/17 08:17:50;;;;;;;22.05;10.88;;;;;;;-14.28;59.43;100881.56;1798103;78;21014;-82
2021/01/17 08:20:28;;;;;;;29.50;13.95;;;;;;;-14.26;59.26;100886.28;1797936;78;20941;-80
2021/01/17 08:23:09;;;;;;;25.52;12.73;;;;;;;-14.25;59.32;100889.28;1797820;78;21368;-83
2021/01/17 08:25:55;;;;;;;27.70;12.40;;;;;;;-14.21;59.21;100894.04;1797956;78;20919;-84
2021/01/17 08:28:36;;;;;;;26.15;12.33;;;;;;;-14.17;59.45;100895.05;1797299;78;21073;-85
2021/01/17 08:31:34;;;;;;;25.50;11.80;;;;;;;-14.09;59.18;100887.03;1768716;78;21412;-84
2021/01/17 08:34:08;;;;;;;20.10;11.22;;;;;;;-14.03;58.99;100893.98;1798415;78;21001;-85
2021/01/17 08:36:36;;;;;;;21.62;11.40;;;;;;;-13.98;58.94;100893.80;1794376;78;21273;-79
2021/01/17 08:39:04;;;;;;;24.67;11.60;;;;;;;-13.95;58.90;100899.37;1789735;78;20962;-78
2021/01/17 08:41:32;;;;;;;20.95;11.30;;;;;;;-13.93;58.76;100889.81;1789501;78;21582;-78
2021/01/17 08:44:04;;;;;;;23.75;10.38;;;;;;;-13.90;58.69;100892.45;1790239;77;20946;-78
2021/01/17 08:46:39;;;;;;;24.72;9.83;;;;;;;-13.87;58.44;100895.50;1766012;78;20976;-77
2021/01/17 08:49:08;;;;;;;25.60;10.10;;;;;;;-13.87;58.38;100892.98;1789713;78;22141;-76
2021/01/17 08:51:37;;;;;;;15.90;8.60;;;;;;;-13.88;58.17;100892.13;1789759;78;20923;-78
2021/01/17 08:54:25;;;;;;;15.10;7.65;;;;;;;-13.93;58.26;100888.95;1789632;78;20946;-77
2021/01/17 08:56:55;;;;;;;19.17;8.25;;;;;;;-13.87;58.38;100889.20;1789536;78;21025;-77
2021/01/17 08:59:36;;;;;;;15.08;8.25;;;;;;;-13.80;58.30;100883.64;1789515;78;20954;-78
2021/01/17 09:02:04;;;;;;;18.02;8.33;;;;;;;-13.66;58.37;100885.08;1789461;78;20974;-78
2021/01/17 09:04:37;;;;;;;14.78;7.17;;;;;;;-13.50;58.08;100886.56;1789666;78;20977;-78
2021/01/17 09:07:05;;;;;;;16.62;8.08;;;;;;;-13.40;57.65;100882.38;1764325;77;20978;-77
2021/01/17 09:09:36;;;;;;;12.45;8.33;;;;;;;-13.34;57.60;100883.01;1758960;78;21033;-77
2021/01/17 09:12:11;;;;;;;16.20;7.80;;;;;;;-13.21;57.60;100888.13;1789562;78;21479;-75
2021/01/17 09:14:42;;;;;;;23.30;8.88;;;;;;;-13.09;57.18;100890.27;1789482;78;21004;-75
2021/01/17 09:17:12;;;;;;;17.73;8.73;;;;;;;-12.97;57.00;100885.31;1789225;78;20899;-78
2021/01/17 09:19:42;;;;;;;14.78;8.40;;;;;;;-12.77;56.55;100884.82;1788152;78;21053;-81
2021/01/17 09:22:09;;;;;;;17.07;9.28;;;;;;;-12.65;56.32;100889.47;1789624;78;20942;-81
2021/01/17 09:24:39;;;;;;;16.77;8.83;;;;;;;-12.59;55.57;100884.66;1789422;78;21370;-77
2021/01/17 09:27:09;;;;;;;15.23;7.58;;;;;;;-12.46;55.19;100887.25;1789781;78;21031;-79
2021/01/17 09:29:40;;;;;;;16.17;8.68;;;;;;;-12.32;54.76;100893.66;1791022;78;20926;-79
2021/01/17 09:32:16;;;;;;;17.48;9.58;;;;;;;-12.31;54.28;100886.55;1789418;78;20938;-80
2021/01/17 09:34:48;;;;;;;17.10;8.98;;;;;;;-12.25;54.19;100892.22;1789441;78;20962;-79
2021/01/17 09:37:18;;;;;;;15.43;8.75;;;;;;;-12.12;54.28;100897.33;1789462;78;20975;-77
2021/01/17 09:39:51;;;;;;;14.43;7.50;;;;;;;-12.10;53.52;100895.72;1789605;77;22029;-78
2021/01/17 09:42:24;;;;;;;22.73;9.40;;;;;;;-12.24;53.84;100886.38;1789451;78;20954;-78
2021/01/17 09:45:01;;;;;;;17.25;10.13;;;;;;;-12.29;54.43;100883.20;1789447;78;20986;-79
2021/01/17 09:47:30;;;;;;;17.25;8.83;;;;;;;-12.19;54.05;100885.28;1789744;78;20966;-77
2021/01/17 09:50:12;;;;;;;20.97;9.65;;;;;;;-12.20;53.35;100889.48;1789394;78;20938;-79
2021/01/17 09:52:41;;;;;;;27.05;9.98;;;;;;;-12.36;53.93;100888.06;1789698;78;21114;-80
2021/01/17 09:55:10;;;;;;;20.43;9.78;;;;;;;-12.40;53.91;100887.48;1790113;78;20962;-87
2021/01/17 09:57:40;;;;;;;28.65;12.80;;;;;;;-12.35;54.00;100882.19;1791239;78;22108;-86
2021/01/17 10:00:20;;;;;;;27.27;12.53;;;;;;;-12.23;54.30;100883.03;1791771;78;20951;-83
2021/01/17 10:02:49;;;;;;;14.68;8.50;;;;;;;-12.03;54.37;100882.48;1792597;78;20998;-85
2021/01/17 10:05:29;;;;;;;18.82;10.95;;;;;;;-11.82;53.19;100869.72;1791126;78;21159;-84
2021/01/17 10:08:04;;;;;;;14.07;7.67;;;;;;;-11.71;52.59;100872.62;1789652;78;20915;-84
2021/01/17 10:10:36;;;;;;;16.20;8.73;;;;;;;-11.78;51.16;100868.13;1823446;77;21057;-83
2021/01/17 10:13:05;;;;;;;22.77;9.45;;;;;;;-11.90;51.33;100855.97;1791891;78;21018;-82
2021/01/17 10:15:40;;;;;;;16.42;8.73;;;;;;;-11.93;51.42;100859.26;1823669;78;21025;-81
2021/01/17 10:18:09;;;;;;;16.40;9.08;;;;;;;-11.94;51.70;100865.14;1791349;78;21668;-80
2021/01/17 10:20:38;;;;;;;15.65;9.58;;;;;;;-11.94;52.06;100870.58;1791280;78;20894;-83
2021/01/17 10:23:12;;;;;;;19.00;9.50;;;;;;;-11.94;52.21;100856.67;1791393;78;20946;-79
2021/01/17 10:25:39;;;;;;;18.20;9.75;;;;;;;-11.95;51.70;100852.44;1791646;78;20942;-82
2021/01/17 10:28:11;;;;;;;17.48;9.45;;;;;;;-12.04;51.93;100858.44;1792050;78;20974;-82
2021/01/17 10:30:41;;;;;;;23.35;12.05;;;;;;;-12.18;51.63;100854.13;1791762;78;21808;-81
2021/01/17 10:33:12;;;;;;;17.90;10.03;;;;;;;-12.24;52.46;100848.47;1791447;78;21376;-82
2021/01/17 10:35:45;;;;;;;20.77;10.40;;;;;;;-12.13;52.19;100846.33;1791836;78;20927;-79
2021/01/17 10:38:18;;;;;;;19.00;9.58;;;;;;;-12.18;52.14;100844.02;1820045;77;21025;-82
2021/01/17 10:40:46;;;;;;;26.30;13.28;;;;;;;-12.28;52.20;100839.47;1822320;77;20966;-80
2021/01/17 10:43:23;;;;;;;21.40;11.57;;;;;;;-12.39;52.89;100841.19;1850256;76;21109;-82
2021/01/17 10:45:56;;;;;;;16.02;8.15;;;;;;;-12.34;52.86;100840.09;1851253;77;20958;-82
2021/01/17 10:48:24;;;;;;;19.10;10.23;;;;;;;-12.26;52.51;100841.65;1822889;77;20969;-84
2021/01/17 10:53:37;;;;;;;23.57;10.28;;;;;;;-12.36;52.85;100841.33;1779964;78;22741;-82
2021/01/17 10:56:06;;;;;;;21.02;10.13;;;;;;;-12.43;52.75;100842.29;1723915;82;20988;-83
2021/01/17 10:58:41;;;;;;;20.17;11.00;;;;;;;-12.52;52.32;100842.81;1720975;82;21473;-86
2021/01/17 11:01:11;;;;;;;20.10;11.73;;;;;;;-12.61;52.69;100839.95;1719692;82;21046;-82
2021/01/17 11:03:44;;;;;;;27.45;13.50;;;;;;;-12.66;52.86;100844.83;1720701;82;20975;-83
2021/01/17 11:06:18;;;;;;;27.02;11.78;;;;;;;-12.64;53.44;100834.80;1720159;82;21058;-81
2021/01/17 11:08:58;;;;;;;23.05;11.90;;;;;;;-12.62;53.77;100829.00;1719509;82;20956;-84
2021/01/17 11:11:30;;;;;;;24.20;12.10;;;;;;;-12.58;53.90;100824.91;1719215;82;22853;-84
2021/01/17 11:14:05;;;;;;;20.27;10.18;;;;;;;-12.55;54.03;100833.87;1718921;82;21042;-83
2021/01/17 11:16:46;;;;;;;23.50;11.48;;;;;;;-12.54;53.66;100838.99;1718980;82;21062;-77
2021/01/17 11:19:16;;;;;;;24.60;11.08;;;;;;;-12.63;54.16;100836.51;1720248;82;21018;-80
2021/01/17 11:21:47;;;;;;;21.05;10.50;;;;;;;-12.72;54.02;100845.86;1720552;82;21022;-82
2021/01/17 11:24:17;;;;;;;20.68;10.63;;;;;;;-12.86;54.07;100844.08;1695721;82;21894;-83
2021/01/17 11:26:48;;;;;;;20.27;11.35;;;;;;;-12.94;54.69;100836.61;1720626;82;20958;-83
2021/01/17 11:29:15;;;;;;;23.35;12.13;;;;;;;-12.99;55.11;100840.63;1720344;82;20951;-85